Wilson Clyde — 8PRV — position and weather

sailwx.info

Track history (hours):
 
Tides and Currents Weather Stations Pressure Air Temp Water Temp Dewpoint Dewpoint Depression Visibility Wind Speed Wind Dir Waves Ship Positions

Wilson Clyde

Last reported at 2014-Jul-24 19:33 UTC. Time now 2014-Jul-24 20:08 UTC.
Position N 53°48' E 006°15'.

Length 100 m; draft 3.5 m.

Type: Ship. MMSI: 314187000.

Date/timePositionNaut miles runAvg speedWind from/ knotsBaromVisibWave heightAir tempDewpointWater temp
2014-Jul-24 19:33N 53°48' E 006°15'1211.5
2014-Jul-24 18:33N 53°51' E 006°33'1211.7
2014-Jul-24 17:33N 53°54' E 006°52'1212.3
2014-Jul-24 16:33N 53°58' E 007°13'1313.2
2014-Jul-24 15:33N 54°01' E 007°34'1312.7
2014-Jul-24 14:33N 54°01' E 007°56'1111.4
2014-Jul-24 13:34N 54°03' E 008°15'1312.7
2014-Jul-24 12:33N 54°16' E 008°22'1111.5
2014-Jul-24 11:33N 54°25' E 008°33'17 2.2
2014-Jul-24 03:32N 54°28' E 009°02'0 0.0
2014-Jul-24 02:29N 54°28' E 009°02'0 0.0
2014-Jul-23 06:32N 54°28' E 009°02'0 0.0
2014-Jul-23 05:32N 54°28' E 009°02'0 0.0
2014-Jul-23 04:29N 54°28' E 009°02'0 0.0
2014-Jul-23 03:32N 54°28' E 009°02'0 0.0
2014-Jul-23 02:29N 54°28' E 009°02'0 0.0
2014-Jul-23 01:32N 54°28' E 009°02'0 0.0
2014-Jul-23 00:23N 54°28' E 009°02'0 0.0
2014-Jul-22 05:26N 54°28' E 009°02'0 0.0
2014-Jul-22 04:32N 54°28' E 009°02'0 0.0
2014-Jul-20 22:32N 54°28' E 009°02'0 0.0
2014-Jul-20 20:23N 54°28' E 009°02'0 0.0
2014-Jul-20 07:29N 54°28' E 009°02'0 0.0
2014-Jul-20 06:32N 54°28' E 009°02'0 0.0
2014-Jul-20 05:32N 54°28' E 009°02'0 0.0
2014-Jul-20 04:32N 54°28' E 009°02'0 0.0
2014-Jul-20 03:32N 54°28' E 009°02'0 0.0
2014-Jul-20 02:32N 54°28' E 009°02'0 0.0
2014-Jul-20 01:32N 54°28' E 009°02'0 0.0
2014-Jul-20 00:26N 54°28' E 009°02'0 0.0
2014-Jul-19 23:32N 54°28' E 009°02'0 0.0
2014-Jul-19 05:29N 54°28' E 009°02'0 0.0
2014-Jul-19 04:32N 54°28' E 009°02'0 0.0
2014-Jul-18 05:23N 54°28' E 009°02'0 0.0
2014-Jul-17 21:29N 54°28' E 009°02'0 0.0
2014-Jul-17 03:29N 54°28' E 009°02'16 5.2
2014-Jul-17 00:28N 54°26' E 008°35'8 9.1
2014-Jul-16 23:33N 54°19' E 008°28'9 9.3
2014-Jul-16 22:33N 54°12' E 008°19'1110.9
2014-Jul-16 21:33N 54°01' E 008°16'9 9.2
2014-Jul-16 20:33N 54°01' E 008°00'10 9.8
2014-Jul-16 19:33N 54°05' E 007°45'10 9.7
2014-Jul-16 18:33N 54°09' E 007°30'8 8.4
2014-Jul-16 17:33N 54°17' E 007°25'1010.1
2014-Jul-16 16:33N 54°27' E 007°23'10 9.5
2014-Jul-16 15:33N 54°37' E 007°24'6 6.3
2014-Jul-16 14:32N 54°43' E 007°24'4 4.1
2014-Jul-16 13:33N 54°47' E 007°23'8 8.4
2014-Jul-16 12:33N 54°56' E 007°24'9 8.6
2014-Jul-16 11:33N 55°04' E 007°23'9 8.8
2014-Jul-16 10:33N 55°13' E 007°23'8 8.5
2014-Jul-16 09:33N 55°21' E 007°22'9 8.5
2014-Jul-16 08:33N 55°30' E 007°21'9 9.1
2014-Jul-16 07:34N 55°39' E 007°22'10 9.5
2014-Jul-16 06:33N 55°48' E 007°25'1111.0
2014-Jul-16 05:33N 55°59' E 007°31'  
Track history (hours):
 
Tides and Currents Weather Stations Pressure Air Temp Water Temp Dewpoint Dewpoint Depression Visibility Wind Speed Wind Dir Waves Ship Positions

Wilson Clyde

Last reported at 2014-Jul-24 19:33 UTC. Time now 2014-Jul-24 20:08 UTC.
Position N 53°48' E 006°15'.

Length 100 m; draft 3.5 m.

Type: Ship. MMSI: 314187000.

Date/timePositionNaut miles runAvg speedWind from/ knotsBaromVisibWave heightAir tempDewpointWater temp
2014-Jul-24 19:33N 53°48' E 006°15'1211.5
2014-Jul-24 18:33N 53°51' E 006°33'1211.7
2014-Jul-24 17:33N 53°54' E 006°52'1212.3
2014-Jul-24 16:33N 53°58' E 007°13'1313.2
2014-Jul-24 15:33N 54°01' E 007°34'1312.7
2014-Jul-24 14:33N 54°01' E 007°56'1111.4
2014-Jul-24 13:34N 54°03' E 008°15'1312.7
2014-Jul-24 12:33N 54°16' E 008°22'1111.5
2014-Jul-24 11:33N 54°25' E 008°33'17 2.2
2014-Jul-24 03:32N 54°28' E 009°02'0 0.0
2014-Jul-24 02:29N 54°28' E 009°02'0 0.0
2014-Jul-23 06:32N 54°28' E 009°02'0 0.0
2014-Jul-23 05:32N 54°28' E 009°02'0 0.0
2014-Jul-23 04:29N 54°28' E 009°02'0 0.0
2014-Jul-23 03:32N 54°28' E 009°02'0 0.0
2014-Jul-23 02:29N 54°28' E 009°02'0 0.0
2014-Jul-23 01:32N 54°28' E 009°02'0 0.0
2014-Jul-23 00:23N 54°28' E 009°02'0 0.0
2014-Jul-22 05:26N 54°28' E 009°02'0 0.0
2014-Jul-22 04:32N 54°28' E 009°02'0 0.0
2014-Jul-20 22:32N 54°28' E 009°02'0 0.0
2014-Jul-20 20:23N 54°28' E 009°02'0 0.0
2014-Jul-20 07:29N 54°28' E 009°02'0 0.0
2014-Jul-20 06:32N 54°28' E 009°02'0 0.0
2014-Jul-20 05:32N 54°28' E 009°02'0 0.0
2014-Jul-20 04:32N 54°28' E 009°02'0 0.0
2014-Jul-20 03:32N 54°28' E 009°02'0 0.0
2014-Jul-20 02:32N 54°28' E 009°02'0 0.0
2014-Jul-20 01:32N 54°28' E 009°02'0 0.0
2014-Jul-20 00:26N 54°28' E 009°02'0 0.0
2014-Jul-19 23:32N 54°28' E 009°02'0 0.0
2014-Jul-19 05:29N 54°28' E 009°02'0 0.0
2014-Jul-19 04:32N 54°28' E 009°02'0 0.0
2014-Jul-18 05:23N 54°28' E 009°02'0 0.0
2014-Jul-17 21:29N 54°28' E 009°02'0 0.0
2014-Jul-17 03:29N 54°28' E 009°02'16 5.2
2014-Jul-17 00:28N 54°26' E 008°35'8 9.1
2014-Jul-16 23:33N 54°19' E 008°28'9 9.3
2014-Jul-16 22:33N 54°12' E 008°19'1110.9
2014-Jul-16 21:33N 54°01' E 008°16'9 9.2
2014-Jul-16 20:33N 54°01' E 008°00'10 9.8
2014-Jul-16 19:33N 54°05' E 007°45'10 9.7
2014-Jul-16 18:33N 54°09' E 007°30'8 8.4
2014-Jul-16 17:33N 54°17' E 007°25'1010.1
2014-Jul-16 16:33N 54°27' E 007°23'10 9.5
2014-Jul-16 15:33N 54°37' E 007°24'6 6.3
2014-Jul-16 14:32N 54°43' E 007°24'4 4.1
2014-Jul-16 13:33N 54°47' E 007°23'8 8.4
2014-Jul-16 12:33N 54°56' E 007°24'9 8.6
2014-Jul-16 11:33N 55°04' E 007°23'9 8.8
2014-Jul-16 10:33N 55°13' E 007°23'8 8.5
2014-Jul-16 09:33N 55°21' E 007°22'9 8.5
2014-Jul-16 08:33N 55°30' E 007°21'9 9.1
2014-Jul-16 07:34N 55°39' E 007°22'10 9.5
2014-Jul-16 06:33N 55°48' E 007°25'1111.0
2014-Jul-16 05:33N 55°59' E 007°31'  

Dump ship's entire track history